sensor_id;sensor_type;location;lat;lon;timestamp;temperature;humidity
51867;DHT22;52862;52.504;13.480;2023-08-17T00:01:58;21.80;99.90
51867;DHT22;52862;52.504;13.480;2023-08-17T00:04:25;21.40;99.90
51867;DHT22;52862;52.504;13.480;2023-08-17T00:06:52;21.70;99.90
51867;DHT22;52862;52.504;13.480;2023-08-17T00:09:18;21.60;99.90
51867;DHT22;52862;52.504;13.480;2023-08-17T00:11:45;21.70;99.90
51867;DHT22;52862;52.504;13.480;2023-08-17T00:14:12;21.20;99.90
51867;DHT22;52862;52.504;13.480;2023-08-17T00:16:39;21.60;99.90
51867;DHT22;52862;52.504;13.480;2023-08-17T00:19:07;21.60;99.90
51867;DHT22;52862;52.504;13.480;2023-08-17T00:21:34;21.50;99.90
51867;DHT22;52862;52.504;13.480;2023-08-17T00:24:02;21.50;99.90
51867;DHT22;52862;52.504;13.480;2023-08-17T00:26:28;21.30;99.90
51867;DHT22;52862;52.504;13.480;2023-08-17T00:28:55;21.40;99.90
51867;DHT22;52862;52.504;13.480;2023-08-17T00:31:22;21.40;99.90
51867;DHT22;52862;52.504;13.480;2023-08-17T00:33:49;21.40;99.90
51867;DHT22;52862;52.504;13.480;2023-08-17T00:36:16;21.30;99.90
51867;DHT22;52862;52.504;13.480;2023-08-17T00:38:42;21.40;99.90
51867;DHT22;52862;52.504;13.480;2023-08-17T00:41:09;21.00;99.90
51867;DHT22;52862;52.504;13.480;2023-08-17T00:43:36;21.30;99.90
51867;DHT22;52862;52.504;13.480;2023-08-17T00:46:03;21.10;99.90
51867;DHT22;52862;52.504;13.480;2023-08-17T00:48:30;21.20;99.90
51867;DHT22;52862;52.504;13.480;2023-08-17T00:50:58;21.10;99.90
51867;DHT22;52862;52.504;13.480;2023-08-17T00:53:26;21.20;99.90
51867;DHT22;52862;52.504;13.480;2023-08-17T00:55:54;21.20;99.90
51867;DHT22;52862;52.504;13.480;2023-08-17T00:58:21;21.10;99.90
51867;DHT22;52862;52.504;13.480;2023-08-17T01:00:47;21.20;99.90
51867;DHT22;52862;52.504;13.480;2023-08-17T01:03:15;21.10;99.90
51867;DHT22;52862;52.504;13.480;2023-08-17T01:05:43;21.10;99.90
51867;DHT22;52862;52.504;13.480;2023-08-17T01:08:10;21.10;99.90
51867;DHT22;52862;52.504;13.480;2023-08-17T01:10:44;23.20;99.90
51867;DHT22;52862;52.504;13.480;2023-08-17T01:13:17;21.10;99.90
51867;DHT22;52862;52.504;13.480;2023-08-17T01:15:50;21.00;99.90
51867;DHT22;52862;52.504;13.480;2023-08-17T01:18:20;21.00;99.90
51867;DHT22;52862;52.504;13.480;2023-08-17T01:20:49;21.00;99.90
51867;DHT22;52862;52.504;13.480;2023-08-17T01:23:23;21.00;99.90
51867;DHT22;52862;52.504;13.480;2023-08-17T01:25:50;20.90;99.90
51867;DHT22;52862;52.504;13.480;2023-08-17T01:28:17;20.90;99.90
51867;DHT22;52862;52.504;13.480;2023-08-17T01:30:47;21.10;99.90
51867;DHT22;52862;52.504;13.480;2023-08-17T01:33:20;20.90;99.90
51867;DHT22;52862;52.504;13.480;2023-08-17T01:35:54;20.90;99.90
51867;DHT22;52862;52.504;13.480;2023-08-17T01:38:29;20.90;99.90
51867;DHT22;52862;52.504;13.480;2023-08-17T01:40:57;20.70;99.90
51867;DHT22;52862;52.504;13.480;2023-08-17T01:43:24;21.20;99.90
51867;DHT22;52862;52.504;13.480;2023-08-17T01:45:52;20.40;99.90
51867;DHT22;52862;52.504;13.480;2023-08-17T01:48:18;20.70;99.90
51867;DHT22;52862;52.504;13.480;2023-08-17T01:50:45;20.90;99.90
51867;DHT22;52862;52.504;13.480;2023-08-17T01:53:12;20.30;99.90
51867;DHT22;52862;52.504;13.480;2023-08-17T01:55:39;20.80;99.90
51867;DHT22;52862;52.504;13.480;2023-08-17T01:58:06;20.90;99.90
51867;DHT22;52862;52.504;13.480;2023-08-17T02:00:33;20.70;99.90
51867;DHT22;52862;52.504;13.480;2023-08-17T02:02:59;20.60;99.90
51867;DHT22;52862;52.504;13.480;2023-08-17T02:05:26;20.30;99.90
51867;DHT22;52862;52.504;13.480;2023-08-17T02:07:55;20.40;99.90
51867;DHT22;52862;52.504;13.480;2023-08-17T02:10:22;20.50;99.90
51867;DHT22;52862;52.504;13.480;2023-08-17T02:12:50;20.50;99.90
51867;DHT22;52862;52.504;13.480;2023-08-17T02:15:24;20.50;99.90
51867;DHT22;52862;52.504;13.480;2023-08-17T02:17:51;20.80;99.90
51867;DHT22;52862;52.504;13.480;2023-08-17T02:20:18;20.50;99.90
51867;DHT22;52862;52.504;13.480;2023-08-17T02:22:44;20.30;99.90
51867;DHT22;52862;52.504;13.480;2023-08-17T02:25:11;20.30;99.90
51867;DHT22;52862;52.504;13.480;2023-08-17T02:27:38;20.40;99.90
51867;DHT22;52862;52.504;13.480;2023-08-17T02:30:06;20.40;99.90
51867;DHT22;52862;52.504;13.480;2023-08-17T02:32:34;20.40;99.90
51867;DHT22;52862;52.504;13.480;2023-08-17T02:35:01;20.40;99.90
51867;DHT22;52862;52.504;13.480;2023-08-17T02:37:27;20.10;99.90
51867;DHT22;52862;52.504;13.480;2023-08-17T02:39:54;20.30;99.90
51867;DHT22;52862;52.504;13.480;2023-08-17T02:42:21;19.90;99.90
51867;DHT22;52862;52.504;13.480;2023-08-17T02:44:48;20.30;99.90
51867;DHT22;52862;52.504;13.480;2023-08-17T02:47:15;20.50;99.90
51867;DHT22;52862;52.504;13.480;2023-08-17T02:49:42;20.80;99.90
51867;DHT22;52862;52.504;13.480;2023-08-17T02:52:09;20.60;99.90
51867;DHT22;52862;52.504;13.480;2023-08-17T02:54:35;20.30;99.90
51867;DHT22;52862;52.504;13.480;2023-08-17T02:57:02;20.60;99.90
51867;DHT22;52862;52.504;13.480;2023-08-17T02:59:29;20.00;99.90
51867;DHT22;52862;52.504;13.480;2023-08-17T03:01:55;20.30;99.90
51867;DHT22;52862;52.504;13.480;2023-08-17T03:04:24;20.30;99.90
51867;DHT22;52862;52.504;13.480;2023-08-17T03:06:50;20.20;99.90
51867;DHT22;52862;52.504;13.480;2023-08-17T03:09:17;19.90;99.90
51867;DHT22;52862;52.504;13.480;2023-08-17T03:11:44;20.20;99.90
51867;DHT22;52862;52.504;13.480;2023-08-17T03:14:10;20.30;99.90
51867;DHT22;52862;52.504;13.480;2023-08-17T03:16:37;20.10;99.90
51867;DHT22;52862;52.504;13.480;2023-08-17T03:19:04;20.50;99.90
51867;DHT22;52862;52.504;13.480;2023-08-17T03:21:34;20.10;99.90
51867;DHT22;52862;52.504;13.480;2023-08-17T03:24:01;20.10;99.90
51867;DHT22;52862;52.504;13.480;2023-08-17T03:26:27;20.00;99.90
51867;DHT22;52862;52.504;13.480;2023-08-17T03:28:54;20.40;99.90
51867;DHT22;52862;52.504;13.480;2023-08-17T03:31:21;20.50;99.90
51867;DHT22;52862;52.504;13.480;2023-08-17T03:33:48;20.30;99.90
51867;DHT22;52862;52.504;13.480;2023-08-17T03:36:14;20.20;99.90
51867;DHT22;52862;52.504;13.480;2023-08-17T03:38:42;20.20;99.90
51867;DHT22;52862;52.504;13.480;2023-08-17T03:41:09;21.40;99.90
51867;DHT22;52862;52.504;13.480;2023-08-17T03:43:35;20.60;99.90
51867;DHT22;52862;52.504;13.480;2023-08-17T03:46:04;20.40;99.90
51867;DHT22;52862;52.504;13.480;2023-08-17T03:48:31;20.30;99.90
51867;DHT22;52862;52.504;13.480;2023-08-17T03:50:57;20.40;99.90
51867;DHT22;52862;52.504;13.480;2023-08-17T03:53:24;20.20;99.90
51867;DHT22;52862;52.504;13.480;2023-08-17T03:55:52;20.30;99.90
51867;DHT22;52862;52.504;13.480;2023-08-17T03:58:19;20.10;99.90
51867;DHT22;52862;52.504;13.480;2023-08-17T04:00:49;20.10;99.90
51867;DHT22;52862;52.504;13.480;2023-08-17T04:03:16;20.20;99.90
51867;DHT22;52862;52.504;13.480;2023-08-17T04:05:42;20.20;99.90
51867;DHT22;52862;52.504;13.480;2023-08-17T04:08:09;20.20;99.90
51867;DHT22;52862;52.504;13.480;2023-08-17T04:10:36;20.30;99.90
51867;DHT22;52862;52.504;13.480;2023-08-17T04:13:03;20.10;99.90
51867;DHT22;52862;52.504;13.480;2023-08-17T04:15:30;20.30;99.90
51867;DHT22;52862;52.504;13.480;2023-08-17T04:17:57;20.30;99.90
51867;DHT22;52862;52.504;13.480;2023-08-17T04:20:23;20.40;99.90
51867;DHT22;52862;52.504;13.480;2023-08-17T04:22:51;20.30;99.90
51867;DHT22;52862;52.504;13.480;2023-08-17T04:25:19;20.40;99.90
51867;DHT22;52862;52.504;13.480;2023-08-17T04:27:46;20.40;99.90
51867;DHT22;52862;52.504;13.480;2023-08-17T04:30:14;20.50;99.90
51867;DHT22;52862;52.504;13.480;2023-08-17T04:32:40;20.50;99.90
51867;DHT22;52862;52.504;13.480;2023-08-17T04:35:08;20.50;99.90
51867;DHT22;52862;52.504;13.480;2023-08-17T04:37:35;20.50;99.90
51867;DHT22;52862;52.504;13.480;2023-08-17T04:40:02;20.60;99.90
51867;DHT22;52862;52.504;13.480;2023-08-17T04:42:29;20.60;99.90
51867;DHT22;52862;52.504;13.480;2023-08-17T04:44:56;20.60;99.90
51867;DHT22;52862;52.504;13.480;2023-08-17T04:47:24;20.70;99.90
51867;DHT22;52862;52.504;13.480;2023-08-17T04:49:51;20.70;99.90
51867;DHT22;52862;52.504;13.480;2023-08-17T04:52:17;20.80;99.90
51867;DHT22;52862;52.504;13.480;2023-08-17T04:54:44;21.10;99.90
51867;DHT22;52862;52.504;13.480;2023-08-17T04:57:11;21.00;99.90
51867;DHT22;52862;52.504;13.480;2023-08-17T04:59:37;21.00;99.90
51867;DHT22;52862;52.504;13.480;2023-08-17T05:02:04;21.10;99.90
51867;DHT22;52862;52.504;13.480;2023-08-17T05:04:32;21.20;99.90
51867;DHT22;52862;52.504;13.480;2023-08-17T05:06:58;21.20;99.90
51867;DHT22;52862;52.504;13.480;2023-08-17T05:09:26;21.50;99.90
51867;DHT22;52862;52.504;13.480;2023-08-17T05:11:53;21.10;99.90
51867;DHT22;52862;52.504;13.480;2023-08-17T05:14:20;21.20;99.90
51867;DHT22;52862;52.504;13.480;2023-08-17T05:16:47;21.30;99.90
51867;DHT22;52862;52.504;13.480;2023-08-17T05:19:14;21.30;99.90
51867;DHT22;52862;52.504;13.480;2023-08-17T05:21:41;21.30;99.90
51867;DHT22;52862;52.504;13.480;2023-08-17T05:24:08;21.30;99.90
51867;DHT22;52862;52.504;13.480;2023-08-17T05:26:35;21.40;99.90
51867;DHT22;52862;52.504;13.480;2023-08-17T05:29:02;21.60;99.90
51867;DHT22;52862;52.504;13.480;2023-08-17T05:31:29;21.70;99.90
51867;DHT22;52862;52.504;13.480;2023-08-17T05:33:56;21.90;99.90
51867;DHT22;52862;52.504;13.480;2023-08-17T05:36:22;21.90;99.90
51867;DHT22;52862;52.504;13.480;2023-08-17T05:38:50;22.00;99.90
51867;DHT22;52862;52.504;13.480;2023-08-17T05:41:16;22.10;99.90
51867;DHT22;52862;52.504;13.480;2023-08-17T05:43:43;22.20;99.90
51867;DHT22;52862;52.504;13.480;2023-08-17T05:46:10;22.60;99.90
51867;DHT22;52862;52.504;13.480;2023-08-17T05:48:37;22.30;99.90
51867;DHT22;52862;52.504;13.480;2023-08-17T05:51:04;22.40;99.90
51867;DHT22;52862;52.504;13.480;2023-08-17T05:53:31;22.40;99.90
51867;DHT22;52862;52.504;13.480;2023-08-17T05:55:58;22.40;99.90
51867;DHT22;52862;52.504;13.480;2023-08-17T05:58:25;22.40;99.90
51867;DHT22;52862;52.504;13.480;2023-08-17T06:00:54;22.40;99.90
51867;DHT22;52862;52.504;13.480;2023-08-17T06:03:21;22.40;99.90
51867;DHT22;52862;52.504;13.480;2023-08-17T06:05:48;22.40;99.90
51867;DHT22;52862;52.504;13.480;2023-08-17T06:08:14;22.30;99.90
51867;DHT22;52862;52.504;13.480;2023-08-17T06:10:41;22.30;99.90
51867;DHT22;52862;52.504;13.480;2023-08-17T06:13:08;21.80;99.90
51867;DHT22;52862;52.504;13.480;2023-08-17T06:15:35;21.80;99.90
51867;DHT22;52862;52.504;13.480;2023-08-17T06:20:29;21.00;99.90
51867;DHT22;52862;52.504;13.480;2023-08-17T06:22:55;21.20;99.90
51867;DHT22;52862;52.504;13.480;2023-08-17T06:25:24;21.30;99.90
51867;DHT22;52862;52.504;13.480;2023-08-17T06:27:52;21.60;99.90
51867;DHT22;52862;52.504;13.480;2023-08-17T06:30:19;21.30;99.90
51867;DHT22;52862;52.504;13.480;2023-08-17T06:32:46;21.40;99.90
51867;DHT22;52862;52.504;13.480;2023-08-17T06:35:12;21.30;99.90
51867;DHT22;52862;52.504;13.480;2023-08-17T06:37:39;21.30;99.90
51867;DHT22;52862;52.504;13.480;2023-08-17T06:40:07;20.90;99.90
51867;DHT22;52862;52.504;13.480;2023-08-17T06:42:35;21.10;99.90
51867;DHT22;52862;52.504;13.480;2023-08-17T06:45:02;21.30;99.90
51867;DHT22;52862;52.504;13.480;2023-08-17T06:47:29;21.30;99.90
51867;DHT22;52862;52.504;13.480;2023-08-17T06:49:56;22.00;99.90
51867;DHT22;52862;52.504;13.480;2023-08-17T06:52:24;21.80;99.90
51867;DHT22;52862;52.504;13.480;2023-08-17T06:54:50;22.00;99.90
51867;DHT22;52862;52.504;13.480;2023-08-17T06:57:17;22.10;99.90
51867;DHT22;52862;52.504;13.480;2023-08-17T06:59:44;22.20;99.90
51867;DHT22;52862;52.504;13.480;2023-08-17T07:02:12;22.40;99.90
51867;DHT22;52862;52.504;13.480;2023-08-17T07:04:39;22.40;99.90
51867;DHT22;52862;52.504;13.480;2023-08-17T07:07:06;22.50;99.90
51867;DHT22;52862;52.504;13.480;2023-08-17T07:09:32;22.40;99.90
51867;DHT22;52862;52.504;13.480;2023-08-17T07:11:59;22.70;99.90
51867;DHT22;52862;52.504;13.480;2023-08-17T07:14:26;22.90;99.90
51867;DHT22;52862;52.504;13.480;2023-08-17T07:16:54;23.10;99.90
51867;DHT22;52862;52.504;13.480;2023-08-17T07:19:21;23.10;99.90
51867;DHT22;52862;52.504;13.480;2023-08-17T07:22:02;23.10;99.90
51867;DHT22;52862;52.504;13.480;2023-08-17T07:24:29;23.20;99.90
51867;DHT22;52862;52.504;13.480;2023-08-17T07:26:55;23.20;99.90
51867;DHT22;52862;52.504;13.480;2023-08-17T07:29:22;23.40;99.90
51867;DHT22;52862;52.504;13.480;2023-08-17T07:31:49;23.60;99.90
51867;DHT22;52862;52.504;13.480;2023-08-17T07:34:16;23.70;99.90
51867;DHT22;52862;52.504;13.480;2023-08-17T07:36:42;23.50;99.90
51867;DHT22;52862;52.504;13.480;2023-08-17T07:39:10;23.40;99.90
51867;DHT22;52862;52.504;13.480;2023-08-17T07:41:36;23.30;99.90
51867;DHT22;52862;52.504;13.480;2023-08-17T07:44:04;23.20;99.90
51867;DHT22;52862;52.504;13.480;2023-08-17T07:46:31;23.20;99.90
51867;DHT22;52862;52.504;13.480;2023-08-17T07:48:57;23.30;99.90
51867;DHT22;52862;52.504;13.480;2023-08-17T07:51:24;23.30;99.90
51867;DHT22;52862;52.504;13.480;2023-08-17T07:53:51;23.50;99.90
51867;DHT22;52862;52.504;13.480;2023-08-17T07:56:18;23.70;99.90
51867;DHT22;52862;52.504;13.480;2023-08-17T07:58:45;23.90;99.90
51867;DHT22;52862;52.504;13.480;2023-08-17T08:01:12;23.90;99.90
51867;DHT22;52862;52.504;13.480;2023-08-17T08:03:39;23.90;99.90
51867;DHT22;52862;52.504;13.480;2023-08-17T08:06:05;24.20;99.90
51867;DHT22;52862;52.504;13.480;2023-08-17T08:08:32;24.10;99.90
51867;DHT22;52862;52.504;13.480;2023-08-17T08:10:59;24.10;99.90
51867;DHT22;52862;52.504;13.480;2023-08-17T08:13:26;24.10;99.90
51867;DHT22;52862;52.504;13.480;2023-08-17T08:15:53;24.10;99.90
51867;DHT22;52862;52.504;13.480;2023-08-17T08:18:19;24.60;99.90
51867;DHT22;52862;52.504;13.480;2023-08-17T08:20:46;24.70;99.90
51867;DHT22;52862;52.504;13.480;2023-08-17T08:23:13;24.90;99.90
51867;DHT22;52862;52.504;13.480;2023-08-17T08:25:40;25.00;99.90
51867;DHT22;52862;52.504;13.480;2023-08-17T08:28:07;25.40;99.90
51867;DHT22;52862;52.504;13.480;2023-08-17T08:30:35;25.40;99.90
51867;DHT22;52862;52.504;13.480;2023-08-17T08:33:02;25.40;99.90
51867;DHT22;52862;52.504;13.480;2023-08-17T08:35:29;25.70;99.90
51867;DHT22;52862;52.504;13.480;2023-08-17T08:37:58;25.50;99.90
51867;DHT22;52862;52.504;13.480;2023-08-17T08:40:27;25.20;99.90
51867;DHT22;52862;52.504;13.480;2023-08-17T08:42:55;25.40;99.90
51867;DHT22;52862;52.504;13.480;2023-08-17T08:45:23;25.50;99.90
51867;DHT22;52862;52.504;13.480;2023-08-17T08:47:51;25.60;99.90
51867;DHT22;52862;52.504;13.480;2023-08-17T08:50:20;25.50;99.90
51867;DHT22;52862;52.504;13.480;2023-08-17T08:52:53;25.50;99.90
51867;DHT22;52862;52.504;13.480;2023-08-17T08:55:27;25.30;99.90
51867;DHT22;52862;52.504;13.480;2023-08-17T08:57:56;25.10;99.90
51867;DHT22;52862;52.504;13.480;2023-08-17T09:00:24;25.10;99.90
51867;DHT22;52862;52.504;13.480;2023-08-17T09:02:53;25.10;99.90
51867;DHT22;52862;52.504;13.480;2023-08-17T09:05:21;25.20;99.90
51867;DHT22;52862;52.504;13.480;2023-08-17T09:07:49;24.90;99.90
51867;DHT22;52862;52.504;13.480;2023-08-17T09:10:16;24.70;99.90
51867;DHT22;52862;52.504;13.480;2023-08-17T09:12:45;24.60;99.90
51867;DHT22;52862;52.504;13.480;2023-08-17T09:15:15;24.50;99.90
51867;DHT22;52862;52.504;13.480;2023-08-17T09:17:42;24.30;99.90
51867;DHT22;52862;52.504;13.480;2023-08-17T09:20:11;24.20;99.90
51867;DHT22;52862;52.504;13.480;2023-08-17T09:22:39;24.30;99.90
51867;DHT22;52862;52.504;13.480;2023-08-17T09:25:07;24.20;99.90
51867;DHT22;52862;52.504;13.480;2023-08-17T09:27:34;24.30;99.90
51867;DHT22;52862;52.504;13.480;2023-08-17T09:30:02;24.20;99.90
51867;DHT22;52862;52.504;13.480;2023-08-17T09:32:30;24.30;99.90
51867;DHT22;52862;52.504;13.480;2023-08-17T09:35:01;24.40;99.90
51867;DHT22;52862;52.504;13.480;2023-08-17T09:37:28;24.80;99.90
51867;DHT22;52862;52.504;13.480;2023-08-17T09:39:55;25.20;99.90
51867;DHT22;52862;52.504;13.480;2023-08-17T09:42:22;25.60;99.90
51867;DHT22;52862;52.504;13.480;2023-08-17T09:44:49;25.80;99.90
51867;DHT22;52862;52.504;13.480;2023-08-17T09:47:19;25.90;99.90
51867;DHT22;52862;52.504;13.480;2023-08-17T09:49:52;26.00;99.90
51867;DHT22;52862;52.504;13.480;2023-08-17T09:52:19;26.10;99.90
51867;DHT22;52862;52.504;13.480;2023-08-17T09:54:46;26.10;99.90
51867;DHT22;52862;52.504;13.480;2023-08-17T09:57:13;26.20;99.90
51867;DHT22;52862;52.504;13.480;2023-08-17T09:59:40;26.20;99.90
51867;DHT22;52862;52.504;13.480;2023-08-17T10:02:15;26.10;99.90
51867;DHT22;52862;52.504;13.480;2023-08-17T10:04:45;26.00;99.90
51867;DHT22;52862;52.504;13.480;2023-08-17T10:07:14;26.10;99.90
51867;DHT22;52862;52.504;13.480;2023-08-17T10:09:47;26.00;99.90
51867;DHT22;52862;52.504;13.480;2023-08-17T10:12:16;28.70;99.90
51867;DHT22;52862;52.504;13.480;2023-08-17T10:14:49;26.10;99.90
51867;DHT22;52862;52.504;13.480;2023-08-17T10:17:27;26.10;99.90
51867;DHT22;52862;52.504;13.480;2023-08-17T10:19:58;26.10;99.90
51867;DHT22;52862;52.504;13.480;2023-08-17T10:22:30;25.40;99.90
51867;DHT22;52862;52.504;13.480;2023-08-17T10:25:00;25.20;99.90
51867;DHT22;52862;52.504;13.480;2023-08-17T10:27:27;25.30;99.90
51867;DHT22;52862;52.504;13.480;2023-08-17T10:29:55;24.90;99.90
51867;DHT22;52862;52.504;13.480;2023-08-17T10:32:23;24.60;99.90
51867;DHT22;52862;52.504;13.480;2023-08-17T10:34:52;24.80;99.90
51867;DHT22;52862;52.504;13.480;2023-08-17T10:37:19;24.80;99.90
51867;DHT22;52862;52.504;13.480;2023-08-17T10:39:48;24.90;99.90
51867;DHT22;52862;52.504;13.480;2023-08-17T10:42:30;25.20;99.90
51867;DHT22;52862;52.504;13.480;2023-08-17T10:44:57;25.40;99.90
51867;DHT22;52862;52.504;13.480;2023-08-17T10:47:25;25.80;99.90
51867;DHT22;52862;52.504;13.480;2023-08-17T10:49:55;26.30;99.90
51867;DHT22;52862;52.504;13.480;2023-08-17T10:52:27;26.60;99.90
51867;DHT22;52862;52.504;13.480;2023-08-17T10:54:55;26.10;99.90
51867;DHT22;52862;52.504;13.480;2023-08-17T10:57:32;26.40;99.90
51867;DHT22;52862;52.504;13.480;2023-08-17T11:00:12;26.40;99.90
51867;DHT22;52862;52.504;13.480;2023-08-17T11:02:53;26.50;99.90
51867;DHT22;52862;52.504;13.480;2023-08-17T11:05:37;26.30;99.90
51867;DHT22;52862;52.504;13.480;2023-08-17T11:08:05;26.00;99.90
51867;DHT22;52862;52.504;13.480;2023-08-17T11:10:32;26.20;99.90
51867;DHT22;52862;52.504;13.480;2023-08-17T11:13:00;26.30;99.90
51867;DHT22;52862;52.504;13.480;2023-08-17T11:15:36;26.40;99.90
51867;DHT22;52862;52.504;13.480;2023-08-17T11:18:06;26.30;99.90
51867;DHT22;52862;52.504;13.480;2023-08-17T11:20:37;26.70;99.90
51867;DHT22;52862;52.504;13.480;2023-08-17T11:23:04;26.70;99.90
51867;DHT22;52862;52.504;13.480;2023-08-17T11:25:32;26.90;99.90
51867;DHT22;52862;52.504;13.480;2023-08-17T11:28:01;27.10;99.90
51867;DHT22;52862;52.504;13.480;2023-08-17T11:30:29;27.10;99.90
51867;DHT22;52862;52.504;13.480;2023-08-17T11:32:56;28.50;99.90
51867;DHT22;52862;52.504;13.480;2023-08-17T11:35:23;27.40;99.90
51867;DHT22;52862;52.504;13.480;2023-08-17T11:37:50;27.40;99.90
51867;DHT22;52862;52.504;13.480;2023-08-17T11:40:17;27.30;99.90
51867;DHT22;52862;52.504;13.480;2023-08-17T11:42:45;27.10;99.90
51867;DHT22;52862;52.504;13.480;2023-08-17T11:45:13;27.20;99.90
51867;DHT22;52862;52.504;13.480;2023-08-17T11:47:40;27.10;99.90
51867;DHT22;52862;52.504;13.480;2023-08-17T11:50:09;27.00;99.90
51867;DHT22;52862;52.504;13.480;2023-08-17T11:52:46;26.90;99.90
51867;DHT22;52862;52.504;13.480;2023-08-17T11:55:16;26.90;99.90
51867;DHT22;52862;52.504;13.480;2023-08-17T11:57:44;27.00;99.90
51867;DHT22;52862;52.504;13.480;2023-08-17T12:00:18;26.90;99.90
51867;DHT22;52862;52.504;13.480;2023-08-17T12:02:50;26.80;99.90
51867;DHT22;52862;52.504;13.480;2023-08-17T12:05:20;26.80;99.90
51867;DHT22;52862;52.504;13.480;2023-08-17T12:07:49;26.70;99.90
51867;DHT22;52862;52.504;13.480;2023-08-17T12:10:18;27.00;99.90
51867;DHT22;52862;52.504;13.480;2023-08-17T12:12:47;27.30;99.90
51867;DHT22;52862;52.504;13.480;2023-08-17T12:15:16;27.30;99.90
51867;DHT22;52862;52.504;13.480;2023-08-17T12:17:45;27.20;99.90
51867;DHT22;52862;52.504;13.480;2023-08-17T12:20:16;27.10;99.90
51867;DHT22;52862;52.504;13.480;2023-08-17T12:22:43;27.30;99.90
51867;DHT22;52862;52.504;13.480;2023-08-17T12:25:10;27.50;99.90
51867;DHT22;52862;52.504;13.480;2023-08-17T12:27:37;28.20;99.90
51867;DHT22;52862;52.504;13.480;2023-08-17T12:30:11;28.80;99.90
51867;DHT22;52862;52.504;13.480;2023-08-17T12:32:38;29.40;99.90
51867;DHT22;52862;52.504;13.480;2023-08-17T12:35:06;29.70;99.90
51867;DHT22;52862;52.504;13.480;2023-08-17T12:37:34;30.10;99.90
51867;DHT22;52862;52.504;13.480;2023-08-17T12:40:03;30.20;99.90
51867;DHT22;52862;52.504;13.480;2023-08-17T12:42:30;29.90;99.90
51867;DHT22;52862;52.504;13.480;2023-08-17T12:44:57;29.40;99.90
51867;DHT22;52862;52.504;13.480;2023-08-17T12:47:24;29.40;99.90
51867;DHT22;52862;52.504;13.480;2023-08-17T12:49:51;29.60;99.90
51867;DHT22;52862;52.504;13.480;2023-08-17T12:52:18;29.70;99.90
51867;DHT22;52862;52.504;13.480;2023-08-17T12:54:45;30.10;99.90
51867;DHT22;52862;52.504;13.480;2023-08-17T12:57:18;30.40;99.90
51867;DHT22;52862;52.504;13.480;2023-08-17T12:59:45;30.30;99.90
51867;DHT22;52862;52.504;13.480;2023-08-17T13:02:12;30.40;99.90
51867;DHT22;52862;52.504;13.480;2023-08-17T13:04:39;30.40;99.90
51867;DHT22;52862;52.504;13.480;2023-08-17T13:07:06;30.70;99.90
51867;DHT22;52862;52.504;13.480;2023-08-17T13:09:33;30.90;99.90
51867;DHT22;52862;52.504;13.480;2023-08-17T13:12:00;31.10;99.90
51867;DHT22;52862;52.504;13.480;2023-08-17T13:14:26;31.20;99.90
51867;DHT22;52862;52.504;13.480;2023-08-17T13:16:53;31.30;99.90
51867;DHT22;52862;52.504;13.480;2023-08-17T13:19:19;31.40;99.90
51867;DHT22;52862;52.504;13.480;2023-08-17T13:21:46;31.00;99.90
51867;DHT22;52862;52.504;13.480;2023-08-17T13:24:13;30.90;99.90
51867;DHT22;52862;52.504;13.480;2023-08-17T13:26:40;30.30;99.90
51867;DHT22;52862;52.504;13.480;2023-08-17T13:29:09;30.10;99.90
51867;DHT22;52862;52.504;13.480;2023-08-17T13:31:36;30.70;99.90
51867;DHT22;52862;52.504;13.480;2023-08-17T13:34:03;31.30;99.90
51867;DHT22;52862;52.504;13.480;2023-08-17T13:36:30;31.40;99.90
51867;DHT22;52862;52.504;13.480;2023-08-17T13:38:57;30.70;99.90
51867;DHT22;52862;52.504;13.480;2023-08-17T13:41:24;30.50;99.90
51867;DHT22;52862;52.504;13.480;2023-08-17T13:43:51;30.30;99.90
51867;DHT22;52862;52.504;13.480;2023-08-17T13:46:18;30.60;99.90
51867;DHT22;52862;52.504;13.480;2023-08-17T13:48:45;30.50;99.90
51867;DHT22;52862;52.504;13.480;2023-08-17T13:51:11;30.70;99.90
51867;DHT22;52862;52.504;13.480;2023-08-17T13:53:39;31.10;99.90
51867;DHT22;52862;52.504;13.480;2023-08-17T13:56:05;31.30;99.90
51867;DHT22;52862;52.504;13.480;2023-08-17T13:58:32;31.60;99.90
51867;DHT22;52862;52.504;13.480;2023-08-17T14:00:59;32.20;99.90
51867;DHT22;52862;52.504;13.480;2023-08-17T14:03:26;32.70;99.90
51867;DHT22;52862;52.504;13.480;2023-08-17T14:05:53;33.40;99.90
51867;DHT22;52862;52.504;13.480;2023-08-17T14:08:20;35.10;99.90
51867;DHT22;52862;52.504;13.480;2023-08-17T14:10:47;35.00;99.90
51867;DHT22;52862;52.504;13.480;2023-08-17T14:13:13;34.80;99.90
51867;DHT22;52862;52.504;13.480;2023-08-17T14:15:40;36.10;99.90
51867;DHT22;52862;52.504;13.480;2023-08-17T14:18:08;34.50;99.90
51867;DHT22;52862;52.504;13.480;2023-08-17T14:20:35;32.80;99.90
51867;DHT22;52862;52.504;13.480;2023-08-17T14:23:02;32.50;99.90
51867;DHT22;52862;52.504;13.480;2023-08-17T14:25:28;33.80;99.90
51867;DHT22;52862;52.504;13.480;2023-08-17T14:27:57;33.70;99.90
51867;DHT22;52862;52.504;13.480;2023-08-17T14:30:23;32.80;99.90
51867;DHT22;52862;52.504;13.480;2023-08-17T14:32:50;34.90;99.90
51867;DHT22;52862;52.504;13.480;2023-08-17T14:35:18;37.90;98.40
51867;DHT22;52862;52.504;13.480;2023-08-17T14:37:45;39.00;94.60
51867;DHT22;52862;52.504;13.480;2023-08-17T14:40:11;41.60;92.10
51867;DHT22;52862;52.504;13.480;2023-08-17T14:42:39;42.20;89.90
51867;DHT22;52862;52.504;13.480;2023-08-17T14:45:07;39.90;90.10
51867;DHT22;52862;52.504;13.480;2023-08-17T14:47:34;36.80;93.10
51867;DHT22;52862;52.504;13.480;2023-08-17T14:50:00;34.30;96.20
51867;DHT22;52862;52.504;13.480;2023-08-17T14:52:28;32.90;98.50
51867;DHT22;52862;52.504;13.480;2023-08-17T14:54:58;31.90;99.90
51867;DHT22;52862;52.504;13.480;2023-08-17T14:57:25;32.30;99.90
51867;DHT22;52862;52.504;13.480;2023-08-17T14:59:52;34.30;98.90
51867;DHT22;52862;52.504;13.480;2023-08-17T15:02:18;37.00;95.90
51867;DHT22;52862;52.504;13.480;2023-08-17T15:04:47;38.20;94.10
51867;DHT22;52862;52.504;13.480;2023-08-17T15:07:14;39.50;92.00
51867;DHT22;52862;52.504;13.480;2023-08-17T15:09:43;40.30;90.40
51867;DHT22;52862;52.504;13.480;2023-08-17T15:12:09;40.60;89.10
51867;DHT22;52862;52.504;13.480;2023-08-17T15:14:36;39.30;90.00
51867;DHT22;52862;52.504;13.480;2023-08-17T15:17:03;38.50;90.80
51867;DHT22;52862;52.504;13.480;2023-08-17T15:19:30;37.10;92.70
51867;DHT22;52862;52.504;13.480;2023-08-17T15:22:04;37.10;92.60